高雄國際航空站 - 高雄掃描席

METAR RCKH 211100Z 18013G24KT 140V220 CAVOK 27/19 Q1014 NOSIG RMK A2997=

站台狀態:Online
最後更新:2024-02-21 19:00:01